Murray, Idaho
Current Conditions -  °F | °C
As of 9:05 AM on Saturday 22 Nov 2014 (Local Time) from KMLP Reporting Station
Overcast Overcast  
Wind Chill: 14°   Ceiling: 900
Heat Index: 24°   Visibility: 10mi
Dew Point: 22°   Wind: 10mph
Humidity: 91%   Direction: 280°W
Pressure: 29.49"   Gusts: 28mph
Location:  47.63°N, 115.86°W
Report Text: KMLP 221705Z AUTO 28009G24KT 250V320 10SM BKN009 OVC017 M04/M06 A2949 RMK AO2 CIG 007V013 T10441056
Loading
Personal Weather Stations






























Interactive Weather Map New forecast layout! Learn more

10-Day Weather Forecast

Advertisements
Track Severe Weather on mobile